createdAt,value
2023-02-14T00:01:33.431Z,-0.50
2023-02-14T00:04:01.841Z,-0.51
2023-02-14T00:06:35.219Z,-0.52
2023-02-14T00:09:03.361Z,-0.52
2023-02-14T00:11:31.779Z,-0.49
2023-02-14T00:14:18.928Z,-0.46
2023-02-14T00:16:46.893Z,-0.44
2023-02-14T00:19:16.814Z,-0.41
2023-02-14T00:21:44.836Z,-0.39
2023-02-14T00:24:19.796Z,-0.35
2023-02-14T00:26:48.870Z,-0.31
2023-02-14T00:29:22.121Z,-0.25
2023-02-14T00:31:50.207Z,-0.21
2023-02-14T00:34:18.990Z,-0.18
2023-02-14T00:36:47.910Z,-0.16
2023-02-14T00:39:16.549Z,-0.16
2023-02-14T00:41:44.913Z,-0.17
2023-02-14T00:44:14.387Z,-0.19
2023-02-14T00:46:42.492Z,-0.23
2023-02-14T00:49:10.413Z,-0.24
2023-02-14T00:51:39.076Z,-0.24
2023-02-14T00:54:07.132Z,-0.23
2023-02-14T00:56:35.085Z,-0.23
2023-02-14T00:59:03.034Z,-0.24
2023-02-14T01:01:31.285Z,-0.26
2023-02-14T01:04:00.031Z,-0.30
2023-02-14T01:06:27.958Z,-0.34
2023-02-14T01:08:56.267Z,-0.37
2023-02-14T01:11:24.871Z,-0.40
2023-02-14T01:13:57.301Z,-0.42
2023-02-14T01:16:27.381Z,-0.43
2023-02-14T01:19:00.364Z,-0.43
2023-02-14T01:21:32.874Z,-0.44
2023-02-14T01:24:03.719Z,-0.44
2023-02-14T01:26:32.937Z,-0.42
2023-02-14T01:29:01.141Z,-0.40
2023-02-14T01:31:32.058Z,-0.38
2023-02-14T01:34:00.709Z,-0.37
2023-02-14T01:36:32.396Z,-0.37
2023-02-14T01:39:04.598Z,-0.37
2023-02-14T01:41:35.143Z,-0.38
2023-02-14T01:44:03.001Z,-0.38
2023-02-14T01:46:33.930Z,-0.37
2023-02-14T01:49:04.868Z,-0.33
2023-02-14T01:51:34.754Z,-0.29
2023-02-14T01:54:05.481Z,-0.28
2023-02-14T01:56:41.556Z,-0.25
2023-02-14T01:59:12.981Z,-0.22
2023-02-14T02:01:41.874Z,-0.21
2023-02-14T02:04:16.121Z,-0.23
2023-02-14T02:06:48.852Z,-0.24
2023-02-14T02:09:32.670Z,-0.25
2023-02-14T02:12:01.875Z,-0.25
2023-02-14T02:14:30.328Z,-0.25
2023-02-14T02:17:16.702Z,-0.24
2023-02-14T02:20:25.813Z,-0.23
2023-02-14T02:23:13.955Z,-0.21
2023-02-14T02:26:12.622Z,-0.19
2023-02-14T02:29:21.207Z,-0.15
2023-02-14T02:32:19.939Z,-0.10
2023-02-14T02:35:14.546Z,-0.07
2023-02-14T02:37:48.338Z,-0.02
2023-02-14T02:40:35.072Z,-0.01
2023-02-14T02:43:17.628Z,0.00
2023-02-14T02:46:15.583Z,0.02
2023-02-14T02:49:13.939Z,0.06
2023-02-14T02:52:12.874Z,0.12
2023-02-14T02:54:51.460Z,0.19
2023-02-14T02:57:25.717Z,0.27
2023-02-14T02:59:57.280Z,0.32
2023-02-14T03:03:01.957Z,0.38
2023-02-14T03:05:30.811Z,0.43
2023-02-14T03:07:58.785Z,0.48
2023-02-14T03:10:36.105Z,0.53
2023-02-14T03:13:26.459Z,0.58
2023-02-14T03:16:10.386Z,0.61
2023-02-14T03:18:45.724Z,0.66
2023-02-14T03:21:26.160Z,0.68
2023-02-14T03:24:02.531Z,0.69
2023-02-14T03:26:43.410Z,0.70
2023-02-14T03:29:27.218Z,0.71
2023-02-14T03:32:11.095Z,0.73
2023-02-14T03:34:55.505Z,0.76
2023-02-14T03:37:32.297Z,0.78
2023-02-14T03:40:04.338Z,0.80
2023-02-14T03:42:44.180Z,0.80
2023-02-14T03:45:18.578Z,0.81
2023-02-14T03:47:48.732Z,0.81
2023-02-14T03:50:20.308Z,0.82
2023-02-14T03:52:52.623Z,0.84
2023-02-14T03:55:32.717Z,0.85
2023-02-14T03:58:13.109Z,0.86
2023-02-14T04:00:42.196Z,0.88
2023-02-14T04:03:13.733Z,0.88
2023-02-14T04:05:43.909Z,0.88
2023-02-14T04:08:12.288Z,0.88
2023-02-14T04:10:41.954Z,0.90
2023-02-14T04:13:10.210Z,0.92
2023-02-14T04:15:38.205Z,0.94
2023-02-14T04:18:24.710Z,0.95
2023-02-14T04:20:52.512Z,0.96
2023-02-14T04:23:20.461Z,0.97
2023-02-14T04:25:48.348Z,0.97
2023-02-14T04:28:16.394Z,0.97
2023-02-14T04:30:44.397Z,0.98
2023-02-14T04:33:12.260Z,1.00
2023-02-14T04:35:40.411Z,1.02
2023-02-14T04:38:11.255Z,1.04
2023-02-14T04:40:39.257Z,1.05
2023-02-14T04:43:08.269Z,1.07
2023-02-14T04:45:36.435Z,1.07
2023-02-14T04:48:20.561Z,1.08
2023-02-14T04:50:55.134Z,1.08
2023-02-14T04:53:22.924Z,1.08
2023-02-14T04:55:53.985Z,1.08
2023-02-14T04:58:21.928Z,1.08
2023-02-14T05:00:49.749Z,1.09
2023-02-14T05:03:17.720Z,1.09
2023-02-14T05:05:54.678Z,1.09
2023-02-14T05:08:23.755Z,1.09
2023-02-14T05:10:51.777Z,1.10
2023-02-14T05:13:19.707Z,1.11
2023-02-14T05:15:47.619Z,1.12
2023-02-14T05:18:15.463Z,1.12
2023-02-14T05:20:43.372Z,1.14
2023-02-14T05:23:15.243Z,1.14
2023-02-14T05:25:44.352Z,1.15
2023-02-14T05:28:15.917Z,1.15
2023-02-14T05:30:46.382Z,1.16
2023-02-14T05:33:17.191Z,1.17
2023-02-14T05:35:45.862Z,1.18
2023-02-14T05:38:14.231Z,1.20
2023-02-14T05:40:43.178Z,1.22
2023-02-14T05:43:11.244Z,1.23
2023-02-14T05:45:39.244Z,1.24
2023-02-14T05:48:07.452Z,1.25
2023-02-14T05:50:37.690Z,1.27
2023-02-14T05:53:05.849Z,1.28
2023-02-14T05:55:33.787Z,1.30
2023-02-14T05:58:01.687Z,1.31
2023-02-14T06:00:29.565Z,1.30
2023-02-14T06:02:57.362Z,1.30
2023-02-14T06:05:25.333Z,1.30
2023-02-14T06:07:53.575Z,1.31
2023-02-14T06:10:24.700Z,1.33
2023-02-14T06:12:53.825Z,1.35
2023-02-14T06:15:22.261Z,1.37
2023-02-14T06:17:57.661Z,1.39
2023-02-14T06:20:25.689Z,1.39
2023-02-14T06:22:54.486Z,1.39
2023-02-14T06:25:23.209Z,1.39
2023-02-14T06:27:51.684Z,1.39
2023-02-14T06:30:19.670Z,1.40
2023-02-14T06:32:47.617Z,1.41
2023-02-14T06:35:15.743Z,1.42
2023-02-14T06:37:45.471Z,1.44
2023-02-14T06:40:14.302Z,1.44
2023-02-14T06:42:42.413Z,1.44
2023-02-14T06:45:11.119Z,1.44
2023-02-14T06:47:38.975Z,1.44
2023-02-14T06:50:07.730Z,1.43
2023-02-14T06:52:35.736Z,1.41
2023-02-14T06:55:03.832Z,1.40
2023-02-14T06:57:31.668Z,1.42
2023-02-14T06:59:59.690Z,1.43
2023-02-14T07:02:27.630Z,1.44
2023-02-14T07:04:55.507Z,1.45
2023-02-14T07:07:23.562Z,1.45
2023-02-14T07:09:52.129Z,1.45
2023-02-14T07:12:19.969Z,1.44
2023-02-14T07:14:47.872Z,1.43
2023-02-14T07:17:15.716Z,1.42
2023-02-14T07:19:43.555Z,1.43
2023-02-14T07:22:11.491Z,1.44
2023-02-14T07:24:39.372Z,1.44
2023-02-14T07:27:07.205Z,1.45
2023-02-14T07:29:35.161Z,1.47
2023-02-14T07:32:03.301Z,1.47
2023-02-14T07:34:31.371Z,1.48
2023-02-14T07:36:59.493Z,1.48
2023-02-14T07:39:27.453Z,1.48
2023-02-14T07:41:55.660Z,1.50
2023-02-14T07:44:23.752Z,1.55
2023-02-14T07:46:51.599Z,1.59
2023-02-14T07:49:19.459Z,1.62
2023-02-14T07:51:47.417Z,1.63
2023-02-14T07:54:15.459Z,1.62
2023-02-14T07:56:43.292Z,1.61
2023-02-14T07:59:11.172Z,1.61
2023-02-14T08:01:39.103Z,1.62
2023-02-14T08:04:07.403Z,1.62
2023-02-14T08:06:35.321Z,1.63
2023-02-14T08:09:03.424Z,1.64
2023-02-14T08:11:50.048Z,1.65
2023-02-14T08:14:18.025Z,1.64
2023-02-14T08:16:46.033Z,1.66
2023-02-14T08:19:13.977Z,1.69
2023-02-14T08:21:42.002Z,1.69
2023-02-14T08:24:09.984Z,1.69
2023-02-14T08:26:37.808Z,1.70
2023-02-14T08:29:05.672Z,1.67
2023-02-14T08:31:36.059Z,1.65
2023-02-14T08:34:05.833Z,1.66
2023-02-14T08:36:35.047Z,1.69
2023-02-14T08:39:04.993Z,1.71
2023-02-14T08:41:33.424Z,1.75
2023-02-14T08:44:01.868Z,1.77
2023-02-14T08:46:29.881Z,1.79
2023-02-14T08:48:57.772Z,1.81
2023-02-14T08:51:26.330Z,1.83
2023-02-14T08:53:56.063Z,1.86
2023-02-14T08:56:25.034Z,1.90
2023-02-14T08:58:54.770Z,1.92
2023-02-14T09:01:23.017Z,1.93
2023-02-14T09:03:51.047Z,1.95
2023-02-14T09:06:19.019Z,1.98
2023-02-14T09:08:47.129Z,1.99
2023-02-14T09:11:18.812Z,2.01
2023-02-14T09:13:47.622Z,2.03
2023-02-14T09:16:17.674Z,2.07
2023-02-14T09:18:46.894Z,2.13
2023-02-14T09:21:21.629Z,2.17
2023-02-14T09:23:49.767Z,2.21
2023-02-14T09:26:18.310Z,2.22
2023-02-14T09:28:46.479Z,2.24
2023-02-14T09:31:22.127Z,2.23
2023-02-14T09:34:09.584Z,2.23
2023-02-14T09:36:56.132Z,2.26
2023-02-14T09:39:24.163Z,2.31
2023-02-14T09:42:19.905Z,2.37
2023-02-14T09:45:05.557Z,2.42
2023-02-14T09:47:44.779Z,2.41
2023-02-14T09:50:36.787Z,2.37
2023-02-14T09:53:16.203Z,2.35
2023-02-14T09:56:01.699Z,2.38
2023-02-14T09:58:36.383Z,2.40
2023-02-14T10:01:17.257Z,2.41
2023-02-14T10:04:22.529Z,2.45
2023-02-14T10:07:05.942Z,2.53
2023-02-14T10:10:21.751Z,2.60
2023-02-14T10:12:56.250Z,2.66
2023-02-14T10:15:31.120Z,2.71
2023-02-14T10:18:21.583Z,2.75
2023-02-14T10:21:02.167Z,2.75
2023-02-14T10:23:33.844Z,2.74
2023-02-14T10:26:18.578Z,2.76
2023-02-14T10:28:49.633Z,2.79
2023-02-14T10:31:29.896Z,2.80
2023-02-14T10:34:26.323Z,2.83
2023-02-14T10:37:26.823Z,2.86
2023-02-14T10:40:17.942Z,2.89
2023-02-14T10:43:00.791Z,2.90
2023-02-14T10:45:39.751Z,2.92
2023-02-14T10:48:13.857Z,2.93
2023-02-14T10:51:01.058Z,2.93
2023-02-14T10:54:09.073Z,2.93
2023-02-14T10:56:58.586Z,2.94
2023-02-14T10:59:40.682Z,2.95
2023-02-14T11:02:14.656Z,2.91
2023-02-14T11:04:43.724Z,2.86
2023-02-14T11:07:16.849Z,2.83
2023-02-14T11:09:45.036Z,2.82
2023-02-14T11:12:32.640Z,2.82
2023-02-14T11:15:23.886Z,2.79
2023-02-14T11:18:09.781Z,2.78
2023-02-14T11:20:37.851Z,2.83
2023-02-14T11:23:20.058Z,2.88
2023-02-14T11:25:55.571Z,2.93
2023-02-14T11:28:24.002Z,3.01
2023-02-14T11:30:52.449Z,3.08
2023-02-14T11:33:32.645Z,3.11
2023-02-14T11:36:03.227Z,3.15
2023-02-14T11:38:36.030Z,3.22
2023-02-14T11:41:06.361Z,3.31
2023-02-14T11:43:49.346Z,3.44
2023-02-14T11:46:20.141Z,3.59
2023-02-14T11:49:07.001Z,3.67
2023-02-14T11:51:43.462Z,3.73
2023-02-14T11:54:26.309Z,3.78
2023-02-14T11:57:01.507Z,3.79
2023-02-14T11:59:37.309Z,3.77
2023-02-14T12:02:42.538Z,3.70
2023-02-14T12:05:31.393Z,3.66
2023-02-14T12:08:02.524Z,3.59
2023-02-14T12:10:35.535Z,3.55
2023-02-14T12:13:09.733Z,3.55
2023-02-14T12:15:42.578Z,3.63
2023-02-14T12:18:43.509Z,3.77
2023-02-14T12:21:26.437Z,3.91
2023-02-14T12:24:05.972Z,3.99
2023-02-14T12:26:36.372Z,4.05
2023-02-14T12:29:26.567Z,4.16
2023-02-14T12:32:01.071Z,4.26
2023-02-14T12:34:30.111Z,4.35
2023-02-14T12:37:16.271Z,4.42
2023-02-14T12:40:02.685Z,4.42
2023-02-14T12:43:00.785Z,4.41
2023-02-14T12:45:50.018Z,4.37
2023-02-14T12:48:52.802Z,4.30
2023-02-14T12:51:23.982Z,4.26
2023-02-14T12:54:28.470Z,4.18
2023-02-14T12:57:04.984Z,4.13
2023-02-14T12:59:57.844Z,4.09
2023-02-14T13:02:49.958Z,4.04
2023-02-14T13:05:26.981Z,3.99
2023-02-14T13:08:10.510Z,3.91
2023-02-14T13:11:12.901Z,3.83
2023-02-14T13:14:05.994Z,3.76
2023-02-14T13:16:52.079Z,3.73
2023-02-14T13:19:44.826Z,3.76
2023-02-14T13:22:20.135Z,3.81
2023-02-14T13:24:51.765Z,3.82
2023-02-14T13:27:27.834Z,3.80
2023-02-14T13:30:19.162Z,3.79
2023-02-14T13:32:51.133Z,3.81
2023-02-14T13:35:30.283Z,3.82
2023-02-14T13:38:13.156Z,3.79
2023-02-14T13:40:41.693Z,3.69
2023-02-14T13:43:10.054Z,3.62
2023-02-14T13:45:41.058Z,3.59
2023-02-14T13:48:27.524Z,3.56
2023-02-14T13:51:07.704Z,3.52
2023-02-14T13:53:38.641Z,3.47
2023-02-14T13:56:29.161Z,3.45
2023-02-14T13:59:05.357Z,3.45
2023-02-14T14:01:33.207Z,3.47
2023-02-14T14:04:04.394Z,3.48
2023-02-14T14:07:00.532Z,3.50
2023-02-14T14:09:53.505Z,3.50
2023-02-14T14:12:27.798Z,3.47
2023-02-14T14:15:04.898Z,3.46
2023-02-14T14:17:40.133Z,3.44
2023-02-14T14:20:26.414Z,3.41
2023-02-14T14:23:00.253Z,3.38
2023-02-14T14:25:38.289Z,3.34
2023-02-14T14:28:18.627Z,3.30
2023-02-14T14:30:47.437Z,3.26
2023-02-14T14:33:24.066Z,3.24
2023-02-14T14:35:59.293Z,3.21
2023-02-14T14:38:28.918Z,3.20
2023-02-14T14:40:57.909Z,3.19
2023-02-14T14:43:32.882Z,3.17
2023-02-14T14:46:03.191Z,3.16
2023-02-14T14:48:40.445Z,3.15
2023-02-14T14:51:23.128Z,3.14
2023-02-14T14:53:54.781Z,3.11
2023-02-14T14:56:29.449Z,3.09
2023-02-14T14:58:58.573Z,3.07
2023-02-14T15:01:40.281Z,3.06
2023-02-14T15:04:29.980Z,3.05
2023-02-14T15:07:17.860Z,3.04
2023-02-14T15:09:45.806Z,3.04
2023-02-14T15:12:36.715Z,3.03
2023-02-14T15:15:05.740Z,3.02
2023-02-14T15:17:33.970Z,3.02
2023-02-14T15:20:07.170Z,3.01
2023-02-14T15:22:45.726Z,2.98
2023-02-14T15:25:18.700Z,2.96
2023-02-14T15:27:47.748Z,2.97
2023-02-14T15:30:29.360Z,2.96
2023-02-14T15:32:58.221Z,2.97
2023-02-14T15:35:32.073Z,2.97
2023-02-14T15:38:02.659Z,2.94
2023-02-14T15:40:32.775Z,2.93
2023-02-14T15:43:14.987Z,2.92
2023-02-14T15:45:45.700Z,2.89
2023-02-14T15:48:23.827Z,2.86
2023-02-14T15:50:54.840Z,2.85
2023-02-14T15:53:39.204Z,2.84
2023-02-14T15:56:12.736Z,2.85
2023-02-14T15:58:40.900Z,2.82
2023-02-14T16:01:09.409Z,2.80
2023-02-14T16:03:43.752Z,2.77
2023-02-14T16:06:35.366Z,2.74
2023-02-14T16:09:05.904Z,2.72
2023-02-14T16:11:37.388Z,2.71
2023-02-14T16:14:21.352Z,2.70
2023-02-14T16:16:59.312Z,2.68
2023-02-14T16:19:41.508Z,2.66
2023-02-14T16:22:13.239Z,2.65
2023-02-14T16:24:42.640Z,2.63
2023-02-14T16:27:13.452Z,2.61
2023-02-14T16:29:41.657Z,2.60
2023-02-14T16:32:20.155Z,2.59
2023-02-14T16:34:49.261Z,2.57
2023-02-14T16:37:26.197Z,2.56
2023-02-14T16:39:57.771Z,2.55
2023-02-14T16:42:25.787Z,2.55
2023-02-14T16:44:54.873Z,2.56
2023-02-14T16:47:22.918Z,2.57
2023-02-14T16:49:53.142Z,2.58
2023-02-14T16:52:23.926Z,2.58
2023-02-14T16:54:53.630Z,2.55
2023-02-14T16:57:28.302Z,2.50
2023-02-14T16:59:56.969Z,2.45
2023-02-14T17:02:28.625Z,2.41
2023-02-14T17:04:57.710Z,2.38
2023-02-14T17:07:28.632Z,2.34
2023-02-14T17:10:00.338Z,2.29
2023-02-14T17:12:32.943Z,2.25
2023-02-14T17:15:08.662Z,2.21
2023-02-14T17:17:37.250Z,2.16
2023-02-14T17:20:08.143Z,2.15
2023-02-14T17:22:37.733Z,2.14
2023-02-14T17:25:06.232Z,2.12
2023-02-14T17:27:34.204Z,2.13
2023-02-14T17:30:02.657Z,2.13
2023-02-14T17:32:31.122Z,2.13
2023-02-14T17:35:01.093Z,2.12
2023-02-14T17:37:29.578Z,2.11
2023-02-14T17:39:57.529Z,2.12
2023-02-14T17:42:25.491Z,2.13
2023-02-14T17:44:53.369Z,2.13
2023-02-14T17:47:21.283Z,2.13
2023-02-14T17:49:49.334Z,2.14
2023-02-14T17:52:18.012Z,2.14
2023-02-14T17:54:45.908Z,2.15
2023-02-14T17:57:13.937Z,2.16
2023-02-14T17:59:46.960Z,2.16
2023-02-14T18:02:14.835Z,2.13
2023-02-14T18:04:42.732Z,2.13
2023-02-14T18:07:10.539Z,2.13
2023-02-14T18:09:38.361Z,2.13
2023-02-14T18:12:07.374Z,2.13
2023-02-14T18:14:36.250Z,2.12
2023-02-14T18:17:04.893Z,2.12
2023-02-14T18:19:33.856Z,2.12
2023-02-14T18:22:02.052Z,2.13
2023-02-14T18:24:31.902Z,2.13
2023-02-14T18:26:59.951Z,2.12
2023-02-14T18:29:28.042Z,2.12
2023-02-14T18:31:56.137Z,2.11
2023-02-14T18:34:24.082Z,2.10
2023-02-14T18:36:55.630Z,2.10
2023-02-14T18:39:23.607Z,2.11
2023-02-14T18:41:51.510Z,2.13
2023-02-14T18:44:20.849Z,2.13
2023-02-14T18:46:48.694Z,2.11
2023-02-14T18:49:19.560Z,2.11
2023-02-14T18:51:48.989Z,2.12
2023-02-14T18:54:20.951Z,2.14
2023-02-14T18:56:48.786Z,2.16
2023-02-14T18:59:17.537Z,2.17
2023-02-14T19:01:46.061Z,2.18
2023-02-14T19:04:15.299Z,2.18
2023-02-14T19:06:43.977Z,2.18
2023-02-14T19:09:14.553Z,2.18
2023-02-14T19:11:43.148Z,2.19
2023-02-14T19:14:13.347Z,2.23
2023-02-14T19:16:50.180Z,2.25
2023-02-14T19:19:20.237Z,2.26
2023-02-14T19:21:48.577Z,2.26
2023-02-14T19:24:18.076Z,2.27
2023-02-14T19:26:46.415Z,2.26
2023-02-14T19:29:34.262Z,2.26
2023-02-14T19:32:03.557Z,2.26
2023-02-14T19:34:32.412Z,2.26
2023-02-14T19:37:02.371Z,2.25
2023-02-14T19:39:31.395Z,2.25
2023-02-14T19:42:00.275Z,2.25
2023-02-14T19:44:29.408Z,2.25
2023-02-14T19:47:00.111Z,2.27
2023-02-14T19:49:29.229Z,2.28
2023-02-14T19:51:58.085Z,2.29
2023-02-14T19:54:25.908Z,2.30
2023-02-14T19:56:56.120Z,2.31
2023-02-14T19:59:24.295Z,2.30
2023-02-14T20:01:54.211Z,2.29
2023-02-14T20:04:25.854Z,2.28
2023-02-14T20:06:54.550Z,2.27
2023-02-14T20:09:24.178Z,2.26
2023-02-14T20:11:57.005Z,2.26
2023-02-14T20:14:35.984Z,2.27
2023-02-14T20:17:08.788Z,2.27
2023-02-14T20:19:38.033Z,2.26
2023-02-14T20:22:08.244Z,2.26
2023-02-14T20:24:36.222Z,2.27
2023-02-14T20:27:04.324Z,2.28
2023-02-14T20:29:33.254Z,2.29
2023-02-14T20:32:04.357Z,2.28
2023-02-14T20:34:32.438Z,2.26
2023-02-14T20:37:00.342Z,2.24
2023-02-14T20:39:34.277Z,2.20
2023-02-14T20:42:02.469Z,2.17
2023-02-14T20:44:31.187Z,2.16
2023-02-14T20:46:59.037Z,2.15
2023-02-14T20:49:28.813Z,2.15
2023-02-14T20:51:57.743Z,2.14
2023-02-14T20:54:27.390Z,2.14
2023-02-14T20:56:55.527Z,2.13
2023-02-14T20:59:26.977Z,2.14
2023-02-14T21:01:59.288Z,2.14
2023-02-14T21:04:28.453Z,2.14
2023-02-14T21:06:57.886Z,2.14
2023-02-14T21:09:26.048Z,2.14
2023-02-14T21:11:54.193Z,2.13
2023-02-14T21:14:22.240Z,2.13
2023-02-14T21:16:50.389Z,2.15
2023-02-14T21:19:18.692Z,2.17
2023-02-14T21:21:46.725Z,2.18
2023-02-14T21:24:16.009Z,2.20
2023-02-14T21:26:44.296Z,2.21
2023-02-14T21:29:12.227Z,2.20
2023-02-14T21:31:40.591Z,2.18
2023-02-14T21:34:08.538Z,2.18
2023-02-14T21:36:36.591Z,2.19
2023-02-14T21:39:05.884Z,2.19
2023-02-14T21:41:35.045Z,2.18
2023-02-14T21:44:03.981Z,2.16
2023-02-14T21:46:36.032Z,2.14
2023-02-14T21:49:24.441Z,2.13
2023-02-14T21:51:52.619Z,2.13
2023-02-14T21:54:20.569Z,2.15
2023-02-14T21:56:49.960Z,2.17
2023-02-14T21:59:18.026Z,2.17
2023-02-14T22:01:45.999Z,2.18
2023-02-14T22:04:14.277Z,2.18
2023-02-14T22:06:43.046Z,2.20
2023-02-14T22:09:14.061Z,2.20
2023-02-14T22:11:42.143Z,2.20
2023-02-14T22:14:10.273Z,2.21
2023-02-14T22:16:38.234Z,2.20
2023-02-14T22:19:07.354Z,2.18
2023-02-14T22:21:35.358Z,2.17
2023-02-14T22:24:04.170Z,2.19
2023-02-14T22:26:35.507Z,2.21
2023-02-14T22:29:03.425Z,2.22
2023-02-14T22:31:40.279Z,2.23
2023-02-14T22:34:11.347Z,2.23
2023-02-14T22:36:39.255Z,2.23
2023-02-14T22:39:07.605Z,2.24
2023-02-14T22:41:37.838Z,2.24
2023-02-14T22:44:06.728Z,2.24
2023-02-14T22:46:36.935Z,2.25
2023-02-14T22:49:06.458Z,2.25
2023-02-14T22:51:39.982Z,2.24
2023-02-14T22:54:13.578Z,2.24
2023-02-14T22:56:46.208Z,2.24
2023-02-14T22:59:19.511Z,2.22
2023-02-14T23:01:49.013Z,2.20
2023-02-14T23:04:19.051Z,2.19
2023-02-14T23:06:47.459Z,2.18
2023-02-14T23:09:15.724Z,2.16
2023-02-14T23:11:45.574Z,2.17
2023-02-14T23:14:32.828Z,2.16
2023-02-14T23:17:19.821Z,2.13
2023-02-14T23:20:06.560Z,2.10
2023-02-14T23:22:41.169Z,2.04
2023-02-14T23:25:11.155Z,1.99
2023-02-14T23:27:44.787Z,1.95
2023-02-14T23:30:16.110Z,1.92
2023-02-14T23:32:44.465Z,1.89
2023-02-14T23:35:12.746Z,1.86
2023-02-14T23:37:43.012Z,1.84
2023-02-14T23:40:11.308Z,1.83
2023-02-14T23:42:39.175Z,1.82
2023-02-14T23:45:26.676Z,1.81
2023-02-14T23:47:54.764Z,1.81
2023-02-14T23:50:22.779Z,1.79
2023-02-14T23:52:50.602Z,1.77
2023-02-14T23:55:18.566Z,1.76
2023-02-14T23:57:47.961Z,1.76
